Time,TemperatureF,DewpointF,PressureIn,WindDirection,WindDirectionDegrees,WindSpeedMPH,WindSpeedGustMPH,Humidity,HourlyPrecipIn,Conditions,Clouds,dailyrainin,SoftwareType,DateUTC
2013-05-17 00:03:00,60.0,50.0,29.94,NNW,342,5.0,8.0,70,0.00,,,0.00,,2013-05-17 04:03:00,
2013-05-17 00:13:00,60.0,50.0,29.94,NNW,342,5.0,8.0,70,0.00,,,0.00,,2013-05-17 04:13:00,
2013-05-17 00:23:00,61.0,49.0,29.94,NNW,339,0.0,2.0,65,0.00,,,0.00,,2013-05-17 04:23:00,
2013-05-17 00:34:00,62.0,50.0,29.94,NNW,339,0.0,1.0,65,0.00,,,0.00,,2013-05-17 04:34:00,
2013-05-17 00:43:00,62.0,50.0,29.94,NNW,339,0.0,1.0,65,0.00,,,0.00,,2013-05-17 04:43:00,
2013-05-17 00:53:00,60.0,49.0,29.95,SSE,164,1.0,5.0,67,0.00,,,0.00,,2013-05-17 04:53:00,
2013-05-17 01:03:00,60.0,49.0,29.96,SE,128,1.0,3.0,68,0.00,,,0.00,,2013-05-17 05:03:00,
2013-05-17 01:14:00,60.0,49.0,29.96,SE,128,1.0,3.0,68,0.00,,,0.00,,2013-05-17 05:14:00,
2013-05-17 01:22:00,61.0,50.0,29.95,ESE,123,0.0,2.0,67,0.00,,,0.00,,2013-05-17 05:22:00,
2013-05-17 01:32:00,60.0,51.0,29.96,ESE,123,0.0,1.0,71,0.00,,,0.00,,2013-05-17 05:32:00,
2013-05-17 01:42:00,60.0,51.0,29.96,ESE,123,0.0,1.0,71,0.00,,,0.00,,2013-05-17 05:42:00,
2013-05-17 01:52:00,59.0,49.0,29.96,ESE,123,1.0,2.0,70,0.00,,,0.00,,2013-05-17 05:52:00,
2013-05-17 02:02:00,58.0,49.0,29.95,ESE,123,0.0,2.0,73,0.00,,,0.00,,2013-05-17 06:02:00,
2013-05-17 02:11:00,58.0,49.0,29.95,ESE,123,0.0,2.0,73,0.00,,,0.00,,2013-05-17 06:11:00,
2013-05-17 02:22:00,57.0,49.0,29.95,ESE,123,0.0,1.0,75,0.00,,,0.00,,2013-05-17 06:22:00,
2013-05-17 02:32:00,57.0,49.0,29.95,ESE,123,0.0,0.0,74,0.00,,,0.00,,2013-05-17 06:32:00,
2013-05-17 02:42:00,57.0,49.0,29.95,ESE,123,0.0,0.0,74,0.00,,,0.00,,2013-05-17 06:42:00,
2013-05-17 02:52:00,56.0,49.0,29.95,ESE,123,0.0,2.0,76,0.00,,,0.00,,2013-05-17 06:52:00,
2013-05-17 03:03:00,56.0,50.0,29.95,ESE,123,0.0,2.0,80,0.00,,,0.00,,2013-05-17 07:03:00,
2013-05-17 03:11:00,56.0,50.0,29.95,ESE,123,0.0,2.0,80,0.00,,,0.00,,2013-05-17 07:11:00,
2013-05-17 03:21:00,56.0,49.0,29.95,ESE,123,0.0,1.0,77,0.00,,,0.00,,2013-05-17 07:21:00,
2013-05-17 03:32:00,60.0,48.0,29.95,NE,43,3.0,5.0,64,0.00,,,0.00,,2013-05-17 07:32:00,
2013-05-17 03:43:00,60.0,48.0,29.95,NE,43,3.0,5.0,64,0.00,,,0.00,,2013-05-17 07:43:00,
2013-05-17 03:53:00,63.0,48.0,29.96,ENE,64,5.0,10.0,59,0.00,,,0.00,,2013-05-17 07:53:00,
2013-05-17 04:02:00,62.0,48.0,29.97,ENE,59,2.0,8.0,60,0.00,,,0.00,,2013-05-17 08:02:00,
2013-05-17 04:12:00,62.0,48.0,29.97,ENE,59,2.0,8.0,60,0.00,,,0.00,,2013-05-17 08:12:00,
2013-05-17 04:23:00,61.0,48.0,29.97,ENE,60,3.0,8.0,63,0.00,,,0.00,,2013-05-17 08:23:00,
2013-05-17 04:34:00,59.0,48.0,29.96,ENE,58,3.0,8.0,67,0.00,,,0.00,,2013-05-17 08:34:00,
2013-05-17 04:42:00,59.0,48.0,29.96,ENE,58,3.0,8.0,67,0.00,,,0.00,,2013-05-17 08:42:00,
2013-05-17 04:52:00,58.0,48.0,29.97,NE,55,3.0,6.0,69,0.00,,,0.00,,2013-05-17 08:52:00,
2013-05-17 05:02:00,57.0,47.0,29.98,ENE,76,1.0,4.0,70,0.00,,,0.00,,2013-05-17 09:02:00,
2013-05-17 05:12:00,57.0,47.0,29.98,ENE,76,1.0,4.0,70,0.00,,,0.00,,2013-05-17 09:12:00,
2013-05-17 05:22:00,56.0,47.0,29.98,ENE,70,2.0,7.0,71,0.00,,,0.00,,2013-05-17 09:22:00,
2013-05-17 05:33:00,56.0,47.0,29.98,NE,42,3.0,10.0,72,0.00,,,0.00,,2013-05-17 09:33:00,
2013-05-17 05:42:00,56.0,47.0,29.98,NE,42,3.0,10.0,72,0.00,,,0.00,,2013-05-17 09:42:00,
2013-05-17 05:53:00,55.0,46.0,29.99,NE,49,1.0,7.0,71,0.00,,,0.00,,2013-05-17 09:53:00,
2013-05-17 06:03:00,55.0,45.0,29.99,ENE,66,3.0,8.0,70,0.00,,,0.00,,2013-05-17 10:03:00,
2013-05-17 06:12:00,55.0,45.0,29.99,ENE,66,3.0,8.0,70,0.00,,,0.00,,2013-05-17 10:12:00,
2013-05-17 06:23:00,54.0,45.0,30.00,ENE,64,2.0,5.0,71,0.00,,,0.00,,2013-05-17 10:23:00,
2013-05-17 06:33:00,53.0,45.0,30.01,NE,53,1.0,5.0,73,0.00,,,0.00,,2013-05-17 10:33:00,
2013-05-17 06:42:00,53.0,45.0,30.01,NE,53,1.0,5.0,73,0.00,,,0.00,,2013-05-17 10:42:00,
2013-05-17 06:53:00,53.0,45.0,30.01,ENE,63,3.0,7.0,73,0.00,,,0.00,,2013-05-17 10:53:00,
2013-05-17 07:02:00,53.0,44.0,30.01,NE,40,3.0,6.0,72,0.00,,,0.00,,2013-05-17 11:02:00,
2013-05-17 07:12:00,53.0,44.0,30.01,NE,40,3.0,6.0,72,0.00,,,0.00,,2013-05-17 11:12:00,
2013-05-17 07:23:00,53.0,44.0,30.01,ENE,69,2.0,5.0,71,0.00,,,0.00,,2013-05-17 11:23:00,
2013-05-17 07:34:00,53.0,43.0,30.02,NE,34,3.0,8.0,69,0.00,,,0.00,,2013-05-17 11:34:00,
2013-05-17 07:42:00,53.0,43.0,30.02,NE,34,3.0,8.0,69,0.00,,,0.00,,2013-05-17 11:42:00,
2013-05-17 07:53:00,54.0,44.0,30.02,NE,53,4.0,9.0,69,0.00,,,0.00,,2013-05-17 11:53:00,
2013-05-17 08:03:00,55.0,45.0,30.03,ENE,66,4.0,9.0,68,0.00,,,0.00,,2013-05-17 12:03:00,
2013-05-17 08:12:00,55.0,45.0,30.03,ENE,66,4.0,9.0,68,0.00,,,0.00,,2013-05-17 12:12:00,
2013-05-17 08:23:00,55.0,45.0,30.03,ESE,113,2.0,9.0,68,0.00,,,0.00,,2013-05-17 12:23:00,
2013-05-17 08:32:00,56.0,46.0,30.03,ENE,78,4.0,11.0,68,0.00,,,0.00,,2013-05-17 12:32:00,
2013-05-17 08:43:00,56.0,46.0,30.03,ENE,78,4.0,11.0,68,0.00,,,0.00,,2013-05-17 12:43:00,
2013-05-17 08:53:00,57.0,46.0,30.03,ESE,107,4.0,12.0,66,0.00,,,0.00,,2013-05-17 12:53:00,
2013-05-17 09:03:00,58.0,47.0,30.03,East,98,3.0,11.0,66,0.00,,,0.00,,2013-05-17 13:03:00,
2013-05-17 09:12:00,58.0,47.0,30.03,East,98,3.0,11.0,66,0.00,,,0.00,,2013-05-17 13:12:00,
2013-05-17 09:23:00,59.0,47.0,30.04,East,80,5.0,10.0,65,0.00,,,0.00,,2013-05-17 13:23:00,
2013-05-17 09:33:00,61.0,49.0,30.03,SE,132,5.0,8.0,65,0.00,,,0.00,,2013-05-17 13:33:00,
2013-05-17 09:42:00,61.0,49.0,30.03,SE,132,5.0,8.0,65,0.00,,,0.00,,2013-05-17 13:42:00,
2013-05-17 09:52:00,62.0,49.0,30.03,East,98,3.0,9.0,62,0.00,,,0.00,,2013-05-17 13:52:00,
2013-05-17 10:02:00,63.0,50.0,30.04,NNE,30,3.0,9.0,62,0.00,,,0.00,,2013-05-17 14:02:00,
2013-05-17 10:13:00,63.0,50.0,30.04,NNE,30,3.0,9.0,62,0.00,,,0.00,,2013-05-17 14:13:00,
2013-05-17 10:22:00,64.0,50.0,30.04,ENE,74,6.0,12.0,60,0.00,,,0.00,,2013-05-17 14:22:00,
2013-05-17 10:34:00,65.0,50.0,30.04,East,89,6.0,13.0,58,0.00,,,0.00,,2013-05-17 14:34:00,
2013-05-17 10:43:00,65.0,50.0,30.04,East,89,6.0,13.0,58,0.00,,,0.00,,2013-05-17 14:43:00,
2013-05-17 10:53:00,66.0,51.0,30.04,ENE,58,2.0,10.0,58,0.00,,,0.00,,2013-05-17 14:53:00,
2013-05-17 11:03:00,67.0,51.0,30.04,NNE,26,5.0,12.0,56,0.00,,,0.00,,2013-05-17 15:03:00,
2013-05-17 11:14:00,67.0,51.0,30.04,NNE,26,5.0,12.0,56,0.00,,,0.00,,2013-05-17 15:14:00,
2013-05-17 11:25:00,68.0,52.0,30.04,ENE,67,6.0,12.0,57,0.00,,,0.00,,2013-05-17 15:25:00,
2013-05-17 11:37:00,69.0,52.0,30.03,ENE,63,6.0,13.0,54,0.00,,,0.00,,2013-05-17 15:37:00,
2013-05-17 11:47:00,69.0,52.0,30.03,ENE,63,6.0,13.0,54,0.00,,,0.00,,2013-05-17 15:47:00,
2013-05-17 11:56:00,70.0,53.0,30.03,ENE,64,4.0,10.0,55,0.00,,,0.00,,2013-05-17 15:56:00,
2013-05-17 12:07:00,71.0,52.0,30.03,SE,132,3.0,9.0,52,0.00,,,0.00,,2013-05-17 16:07:00,
2013-05-17 12:14:00,71.0,52.0,30.03,SE,132,3.0,9.0,52,0.00,,,0.00,,2013-05-17 16:14:00,
2013-05-17 12:26:00,73.0,53.0,30.03,East,80,3.0,8.0,49,0.00,,,0.00,,2013-05-17 16:26:00,
2013-05-17 12:37:00,74.0,54.0,30.03,East,79,4.0,8.0,49,0.00,,,0.00,,2013-05-17 16:37:00,
2013-05-17 12:49:00,74.0,54.0,30.03,East,79,4.0,8.0,49,0.00,,,0.00,,2013-05-17 16:49:00,
2013-05-17 12:56:00,74.0,52.0,30.03,East,91,4.0,9.0,47,0.00,,,0.00,,2013-05-17 16:56:00,
2013-05-17 13:08:00,75.0,53.0,30.03,ESE,108,2.0,8.0,46,0.00,,,0.00,,2013-05-17 17:08:00,
2013-05-17 13:19:00,75.0,53.0,30.03,ESE,108,2.0,8.0,46,0.00,,,0.00,,2013-05-17 17:19:00,
2013-05-17 13:30:00,76.0,53.0,30.03,ENE,67,3.0,10.0,45,0.00,,,0.00,,2013-05-17 17:30:00,
2013-05-17 13:40:00,76.0,-99.9,30.03,ENE,72,2.0,7.0,45,0.00,,,0.00,,2013-05-17 17:40:00,
2013-05-17 13:49:00,76.0,53.0,30.03,ENE,72,2.0,7.0,45,0.00,,,0.00,,2013-05-17 17:49:00,
2013-05-17 14:00:00,77.0,53.0,30.03,East,84,5.0,7.0,43,0.00,,,0.00,,2013-05-17 18:00:00,
2013-05-17 14:09:00,78.0,52.0,30.02,SSE,155,7.0,11.0,40,0.00,,,0.00,,2013-05-17 18:09:00,
2013-05-17 14:20:00,78.0,52.0,30.02,SSE,155,7.0,11.0,40,0.00,,,0.00,,2013-05-17 18:20:00,
2013-05-17 14:30:00,78.0,52.0,30.02,SSE,158,4.0,11.0,40,0.00,,,0.00,,2013-05-17 18:30:00,
2013-05-17 14:40:00,78.0,-99.9,30.02,SE,141,6.0,9.0,41,0.00,,,0.00,,2013-05-17 18:40:00,
2013-05-17 14:50:00,-999.0,-99.9,30.02,SE,141,6.0,9.0,41,0.00,,,0.00,,2013-05-17 18:50:00,
2013-05-17 15:00:00,77.0,52.0,30.01,South,171,4.0,10.0,42,0.00,,,0.00,,2013-05-17 19:00:00,
2013-05-17 15:10:00,78.0,54.0,30.01,SE,124,4.0,7.0,43,0.00,,,0.00,,2013-05-17 19:10:00,
2013-05-17 15:20:00,78.0,54.0,30.01,SE,124,4.0,7.0,43,0.00,,,0.00,,2013-05-17 19:20:00,
2013-05-17 15:30:00,78.0,55.0,30.00,ESE,119,1.0,5.0,45,0.00,,,0.00,,2013-05-17 19:30:00,
2013-05-17 15:40:00,79.0,54.0,29.99,ENE,69,3.0,8.0,42,0.00,,,0.00,,2013-05-17 19:40:00,
2013-05-17 15:51:00,79.0,54.0,29.99,ENE,69,3.0,8.0,42,0.00,,,0.00,,2013-05-17 19:51:00,
2013-05-17 16:00:00,81.0,-99.9,29.99,SSE,153,0.0,9.0,40,0.00,,,0.00,,2013-05-17 20:00:00,
2013-05-17 16:09:00,82.0,51.0,29.98,SSE,162,8.0,12.0,34,0.00,,,0.00,,2013-05-17 20:09:00,
2013-05-17 16:20:00,82.0,51.0,29.98,SSE,162,8.0,12.0,34,0.00,,,0.00,,2013-05-17 20:20:00,
2013-05-17 16:30:00,82.0,52.0,29.98,SE,137,6.0,11.0,35,0.00,,,0.00,,2013-05-17 20:30:00,
2013-05-17 16:40:00,82.0,51.0,29.97,SE,143,7.0,12.0,34,0.00,,,0.00,,2013-05-17 20:40:00,
2013-05-17 16:50:00,82.0,51.0,29.97,SE,143,7.0,12.0,34,0.00,,,0.00,,2013-05-17 20:50:00,
2013-05-17 16:58:00,82.0,52.0,29.96,SSE,153,6.0,11.0,36,0.00,,,0.00,,2013-05-17 20:58:00,
2013-05-17 17:07:00,82.0,52.0,29.96,SE,138,5.0,11.0,35,0.00,,,0.00,,2013-05-17 21:07:00,
2013-05-17 17:17:00,82.0,52.0,29.96,SE,138,5.0,11.0,35,0.00,,,0.00,,2013-05-17 21:17:00,
2013-05-17 17:26:00,82.0,49.0,29.96,SE,140,7.0,11.0,32,0.00,,,0.00,,2013-05-17 21:26:00,
2013-05-17 17:39:00,83.0,47.0,29.96,SE,140,6.0,10.0,29,0.00,,,0.00,,2013-05-17 21:39:00,
2013-05-17 17:49:00,83.0,47.0,29.96,SE,140,6.0,10.0,29,0.00,,,0.00,,2013-05-17 21:49:00,
2013-05-17 17:57:00,82.0,48.0,29.96,SSE,159,6.0,11.0,31,0.00,,,0.00,,2013-05-17 21:57:00,
2013-05-17 18:07:00,82.0,48.0,29.96,South,180,5.0,11.0,31,0.00,,,0.00,,2013-05-17 22:07:00,
2013-05-17 18:17:00,82.0,48.0,29.96,South,180,5.0,11.0,31,0.00,,,0.00,,2013-05-17 22:17:00,
2013-05-17 18:28:00,81.0,50.0,29.97,ESE,119,7.0,12.0,34,0.00,,,0.00,,2013-05-17 22:28:00,
2013-05-17 18:38:00,78.0,52.0,29.98,East,85,5.0,10.0,40,0.00,,,0.00,,2013-05-17 22:38:00,
2013-05-17 18:47:00,78.0,52.0,29.98,East,85,5.0,10.0,40,0.00,,,0.00,,2013-05-17 22:47:00,
2013-05-17 18:54:00,77.0,51.0,29.98,ENE,57,7.0,15.0,40,0.00,,,0.00,,2013-05-17 22:54:00,
2013-05-17 19:04:00,76.0,51.0,29.98,ENE,71,5.0,12.0,41,0.00,,,0.00,,2013-05-17 23:04:00,
2013-05-17 19:13:00,76.0,51.0,29.98,ENE,71,5.0,12.0,41,0.00,,,0.00,,2013-05-17 23:13:00,
2013-05-17 19:23:00,75.0,50.0,29.98,NE,49,6.0,13.0,41,0.00,,,0.00,,2013-05-17 23:23:00,
2013-05-17 19:37:00,73.0,49.0,29.99,NE,44,5.0,14.0,43,0.00,,,0.00,,2013-05-17 23:37:00,
2013-05-17 19:47:00,73.0,49.0,29.99,NE,44,5.0,14.0,43,0.00,,,0.00,,2013-05-17 23:47:00,
2013-05-17 19:54:00,72.0,49.0,30.01,ESE,110,7.0,15.0,44,0.00,,,0.00,,2013-05-17 23:54:00,
2013-05-17 20:02:00,71.0,49.0,30.03,ESE,120,5.0,13.0,46,0.00,,,0.00,,2013-05-18 00:02:00,
2013-05-17 20:14:00,71.0,49.0,30.03,ESE,120,5.0,13.0,46,0.00,,,0.00,,2013-05-18 00:14:00,
2013-05-17 20:22:00,71.0,50.0,30.04,ESE,103,1.0,9.0,47,0.00,,,0.00,,2013-05-18 00:22:00,
2013-05-17 20:33:00,70.0,50.0,30.04,SE,125,2.0,8.0,49,0.00,,,0.00,,2013-05-18 00:33:00,
2013-05-17 20:44:00,70.0,50.0,30.04,SE,125,2.0,8.0,49,0.00,,,0.00,,2013-05-18 00:44:00,
2013-05-17 20:54:00,70.0,54.0,30.05,ENE,74,3.0,5.0,56,0.00,,,0.00,,2013-05-18 00:54:00,
2013-05-17 21:03:00,69.0,51.0,30.05,East,84,4.0,9.0,52,0.00,,,0.00,,2013-05-18 01:03:00,
2013-05-17 21:13:00,69.0,51.0,30.05,East,84,4.0,9.0,52,0.00,,,0.00,,2013-05-18 01:13:00,
2013-05-17 21:24:00,68.0,49.0,30.05,ESE,107,2.0,10.0,51,0.00,,,0.00,,2013-05-18 01:24:00,
2013-05-17 21:32:00,68.0,50.0,30.05,East,81,2.0,4.0,52,0.00,,,0.00,,2013-05-18 01:32:00,
2013-05-17 21:43:00,68.0,50.0,30.05,East,81,2.0,4.0,52,0.00,,,0.00,,2013-05-18 01:43:00,
2013-05-17 21:52:00,67.0,47.0,30.05,NE,46,6.0,8.0,49,0.00,,,0.00,,2013-05-18 01:52:00,
2013-05-17 22:02:00,66.0,46.0,30.06,ENE,74,4.0,8.0,49,0.00,,,0.00,,2013-05-18 02:02:00,
2013-05-17 22:12:00,66.0,46.0,30.06,ENE,74,4.0,8.0,49,0.00,,,0.00,,2013-05-18 02:12:00,
2013-05-17 22:23:00,65.0,45.0,30.06,ENE,69,5.0,10.0,49,0.00,,,0.00,,2013-05-18 02:23:00,
2013-05-17 22:32:00,64.0,44.0,30.06,ENE,57,4.0,9.0,49,0.00,,,0.00,,2013-05-18 02:32:00,
2013-05-17 22:42:00,64.0,44.0,30.06,ENE,57,4.0,9.0,49,0.00,,,0.00,,2013-05-18 02:42:00,
2013-05-17 22:54:00,64.0,45.0,30.06,ENE,70,4.0,9.0,50,0.00,,,0.00,,2013-05-18 02:54:00,
2013-05-17 23:03:00,64.0,45.0,30.06,East,92,4.0,8.0,50,0.00,,,0.00,,2013-05-18 03:03:00,
2013-05-17 23:12:00,64.0,45.0,30.06,East,92,4.0,8.0,50,0.00,,,0.00,,2013-05-18 03:12:00,
2013-05-17 23:23:00,63.0,44.0,30.06,SE,126,3.0,8.0,50,0.00,,,0.00,,2013-05-18 03:23:00,
2013-05-17 23:33:00,63.0,44.0,30.05,NE,47,3.0,7.0,50,0.00,,,0.00,,2013-05-18 03:33:00,
2013-05-17 23:43:00,63.0,44.0,30.05,NE,47,3.0,7.0,50,0.00,,,0.00,,2013-05-18 03:43:00,
2013-05-17 23:53:00,62.0,44.0,30.05,ENE,72,3.0,6.0,51,0.00,,,0.00,,2013-05-18 03:53:00,